sensor_id;sensor_type;location;lat;lon;timestamp;pressure;altitude;pressure_sealevel;temperature;humidity
10700;BME280;5401;41.986;21.452;2023-02-04T00:00:16;98543.47;;;5.23;56.05
10700;BME280;5401;41.986;21.452;2023-02-04T00:02:44;98545.47;;;5.21;56.10
10700;BME280;5401;41.986;21.452;2023-02-04T00:05:12;98550.63;;;5.22;56.17
10700;BME280;5401;41.986;21.452;2023-02-04T00:07:40;98540.94;;;5.29;56.11
10700;BME280;5401;41.986;21.452;2023-02-04T00:10:09;98545.56;;;5.35;56.13
10700;BME280;5401;41.986;21.452;2023-02-04T00:12:38;98539.75;;;5.39;56.13
10700;BME280;5401;41.986;21.452;2023-02-04T00:15:06;98546.53;;;5.42;56.06
10700;BME280;5401;41.986;21.452;2023-02-04T00:17:33;98534.00;;;5.28;56.09
10700;BME280;5401;41.986;21.452;2023-02-04T00:20:03;98528.59;;;5.22;55.86
10700;BME280;5401;41.986;21.452;2023-02-04T00:22:30;98528.59;;;5.22;56.30
10700;BME280;5401;41.986;21.452;2023-02-04T00:24:58;98530.31;;;5.07;56.25
10700;BME280;5401;41.986;21.452;2023-02-04T00:27:25;98534.81;;;4.98;56.70
10700;BME280;5401;41.986;21.452;2023-02-04T00:29:57;98527.41;;;4.94;55.92
10700;BME280;5401;41.986;21.452;2023-02-04T00:32:26;98522.38;;;4.69;56.84
10700;BME280;5401;41.986;21.452;2023-02-04T00:34:53;98541.94;;;4.68;56.71
10700;BME280;5401;41.986;21.452;2023-02-04T00:37:21;98523.25;;;4.61;56.96
10700;BME280;5401;41.986;21.452;2023-02-04T00:39:49;98515.44;;;4.60;56.34
10700;BME280;5401;41.986;21.452;2023-02-04T00:42:16;98512.16;;;4.50;57.29
10700;BME280;5401;41.986;21.452;2023-02-04T00:44:44;98501.09;;;4.47;57.36
10700;BME280;5401;41.986;21.452;2023-02-04T00:47:13;98507.72;;;4.51;56.55
10700;BME280;5401;41.986;21.452;2023-02-04T00:49:40;98509.03;;;4.55;57.44
10700;BME280;5401;41.986;21.452;2023-02-04T00:52:08;98514.97;;;4.57;56.99
10700;BME280;5401;41.986;21.452;2023-02-04T00:54:35;98525.59;;;4.57;57.21
10700;BME280;5401;41.986;21.452;2023-02-04T00:57:03;98499.09;;;4.49;57.30
10700;BME280;5401;41.986;21.452;2023-02-04T00:59:30;98494.13;;;4.46;57.06
10700;BME280;5401;41.986;21.452;2023-02-04T01:01:58;98508.56;;;4.43;57.36
10700;BME280;5401;41.986;21.452;2023-02-04T01:04:27;98498.81;;;4.36;57.74
10700;BME280;5401;41.986;21.452;2023-02-04T01:06:55;98492.19;;;4.32;57.43
10700;BME280;5401;41.986;21.452;2023-02-04T01:09:23;98487.56;;;4.26;57.70
10700;BME280;5401;41.986;21.452;2023-02-04T01:11:51;98482.97;;;4.20;58.06
10700;BME280;5401;41.986;21.452;2023-02-04T01:14:18;98492.06;;;4.18;57.46
10700;BME280;5401;41.986;21.452;2023-02-04T01:16:46;98483.66;;;4.14;57.26
10700;BME280;5401;41.986;21.452;2023-02-04T01:19:13;98485.31;;;3.99;57.49
10700;BME280;5401;41.986;21.452;2023-02-04T01:21:42;98484.84;;;3.96;58.21
10700;BME280;5401;41.986;21.452;2023-02-04T01:24:10;98479.34;;;4.05;58.18
10700;BME280;5401;41.986;21.452;2023-02-04T01:26:37;98478.00;;;4.17;57.76
10700;BME280;5401;41.986;21.452;2023-02-04T01:29:06;98480.28;;;4.28;57.65
10700;BME280;5401;41.986;21.452;2023-02-04T01:31:33;98467.00;;;4.36;58.02
10700;BME280;5401;41.986;21.452;2023-02-04T01:34:01;98471.94;;;4.47;57.52
10700;BME280;5401;41.986;21.452;2023-02-04T01:36:28;98468.41;;;4.54;58.38
10700;BME280;5401;41.986;21.452;2023-02-04T01:38:57;98471.53;;;4.65;57.89
10700;BME280;5401;41.986;21.452;2023-02-04T01:41:26;98448.31;;;4.67;58.30
10700;BME280;5401;41.986;21.452;2023-02-04T01:43:54;98452.22;;;4.79;57.58
10700;BME280;5401;41.986;21.452;2023-02-04T01:46:21;98445.75;;;4.82;57.46
10700;BME280;5401;41.986;21.452;2023-02-04T01:48:49;98450.19;;;4.89;57.30
10700;BME280;5401;41.986;21.452;2023-02-04T01:51:23;98455.63;;;4.96;57.78
10700;BME280;5401;41.986;21.452;2023-02-04T01:53:53;98458.22;;;5.03;57.30
10700;BME280;5401;41.986;21.452;2023-02-04T01:56:23;98446.13;;;5.01;57.82
10700;BME280;5401;41.986;21.452;2023-02-04T01:58:54;98457.69;;;5.08;57.86
10700;BME280;5401;41.986;21.452;2023-02-04T02:01:36;98455.09;;;5.00;58.15
10700;BME280;5401;41.986;21.452;2023-02-04T02:04:07;98437.38;;;4.93;58.01
10700;BME280;5401;41.986;21.452;2023-02-04T02:06:35;98431.84;;;5.02;58.14
10700;BME280;5401;41.986;21.452;2023-02-04T02:09:04;98414.09;;;5.02;58.03
10700;BME280;5401;41.986;21.452;2023-02-04T02:11:33;98411.50;;;4.95;57.83
10700;BME280;5401;41.986;21.452;2023-02-04T02:14:01;98429.09;;;4.96;58.21
10700;BME280;5401;41.986;21.452;2023-02-04T02:16:29;98418.97;;;4.99;57.90
10700;BME280;5401;41.986;21.452;2023-02-04T02:18:58;98408.03;;;4.94;58.08
10700;BME280;5401;41.986;21.452;2023-02-04T02:21:31;98397.66;;;4.85;57.72
10700;BME280;5401;41.986;21.452;2023-02-04T02:24:27;98389.81;;;4.69;58.08
10700;BME280;5401;41.986;21.452;2023-02-04T02:26:56;98398.63;;;4.61;58.47
10700;BME280;5401;41.986;21.452;2023-02-04T02:29:26;98400.69;;;4.52;58.85
10700;BME280;5401;41.986;21.452;2023-02-04T02:31:55;98393.75;;;4.51;58.21
10700;BME280;5401;41.986;21.452;2023-02-04T02:34:24;98398.50;;;4.55;59.07
10700;BME280;5401;41.986;21.452;2023-02-04T02:36:52;98385.22;;;4.63;58.70
10700;BME280;5401;41.986;21.452;2023-02-04T02:39:21;98374.72;;;4.69;58.70
10700;BME280;5401;41.986;21.452;2023-02-04T02:41:50;98389.13;;;4.75;59.06
10700;BME280;5401;41.986;21.452;2023-02-04T02:44:18;98378.50;;;4.75;59.05
10700;BME280;5401;41.986;21.452;2023-02-04T02:46:45;98370.03;;;4.79;58.54
10700;BME280;5401;41.986;21.452;2023-02-04T02:49:15;98355.56;;;4.82;58.98
10700;BME280;5401;41.986;21.452;2023-02-04T02:51:44;98351.41;;;4.87;58.55
10700;BME280;5401;41.986;21.452;2023-02-04T02:54:19;98347.41;;;4.91;58.78
10700;BME280;5401;41.986;21.452;2023-02-04T02:56:49;98341.06;;;4.92;58.41
10700;BME280;5401;41.986;21.452;2023-02-04T02:59:17;98343.56;;;4.94;58.63
10700;BME280;5401;41.986;21.452;2023-02-04T03:01:47;98346.03;;;4.95;58.62
10700;BME280;5401;41.986;21.452;2023-02-04T03:04:16;98338.91;;;4.96;58.28
10700;BME280;5401;41.986;21.452;2023-02-04T03:06:45;98346.84;;;4.96;58.31
10700;BME280;5401;41.986;21.452;2023-02-04T03:09:13;98354.16;;;4.94;58.74
10700;BME280;5401;41.986;21.452;2023-02-04T03:11:40;98361.09;;;4.95;58.68
10700;BME280;5401;41.986;21.452;2023-02-04T03:14:09;98355.16;;;4.93;58.76
10700;BME280;5401;41.986;21.452;2023-02-04T03:16:38;98342.53;;;4.95;58.51
10700;BME280;5401;41.986;21.452;2023-02-04T03:19:06;98327.09;;;4.98;58.81
10700;BME280;5401;41.986;21.452;2023-02-04T03:21:34;98316.16;;;5.01;58.44
10700;BME280;5401;41.986;21.452;2023-02-04T03:24:03;98308.00;;;5.02;58.64
10700;BME280;5401;41.986;21.452;2023-02-04T03:26:31;98311.66;;;5.01;58.71
10700;BME280;5401;41.986;21.452;2023-02-04T03:28:59;98311.19;;;4.98;59.05
10700;BME280;5401;41.986;21.452;2023-02-04T03:31:28;98309.06;;;4.94;58.29
10700;BME280;5401;41.986;21.452;2023-02-04T03:33:55;98292.03;;;4.88;58.94
10700;BME280;5401;41.986;21.452;2023-02-04T03:36:23;98304.28;;;4.75;58.56
10700;BME280;5401;41.986;21.452;2023-02-04T03:38:50;98315.47;;;4.62;59.05
10700;BME280;5401;41.986;21.452;2023-02-04T03:41:19;98309.84;;;4.58;58.70
10700;BME280;5401;41.986;21.452;2023-02-04T03:43:46;98299.25;;;4.58;59.38
10700;BME280;5401;41.986;21.452;2023-02-04T03:46:14;98280.22;;;4.54;58.86
10700;BME280;5401;41.986;21.452;2023-02-04T03:48:43;98289.34;;;4.52;59.56
10700;BME280;5401;41.986;21.452;2023-02-04T03:51:10;98280.41;;;4.53;59.43
10700;BME280;5401;41.986;21.452;2023-02-04T03:53:38;98284.09;;;4.44;59.94
10700;BME280;5401;41.986;21.452;2023-02-04T03:56:05;98271.09;;;4.34;59.98
10700;BME280;5401;41.986;21.452;2023-02-04T03:58:33;98264.50;;;4.30;60.13
10700;BME280;5401;41.986;21.452;2023-02-04T04:01:01;98253.47;;;4.19;59.82
10700;BME280;5401;41.986;21.452;2023-02-04T04:03:28;98260.72;;;4.25;59.74
10700;BME280;5401;41.986;21.452;2023-02-04T04:05:57;98286.16;;;4.34;59.60
10700;BME280;5401;41.986;21.452;2023-02-04T04:08:25;98280.84;;;4.34;59.87
10700;BME280;5401;41.986;21.452;2023-02-04T04:10:52;98284.09;;;4.22;60.07
10700;BME280;5401;41.986;21.452;2023-02-04T04:13:20;98289.97;;;4.09;60.41
10700;BME280;5401;41.986;21.452;2023-02-04T04:15:47;98280.88;;;4.04;60.42
10700;BME280;5401;41.986;21.452;2023-02-04T04:18:14;98276.06;;;4.07;61.05
10700;BME280;5401;41.986;21.452;2023-02-04T04:20:42;98275.91;;;4.09;60.88
10700;BME280;5401;41.986;21.452;2023-02-04T04:23:11;98281.28;;;4.23;60.55
10700;BME280;5401;41.986;21.452;2023-02-04T04:25:38;98293.66;;;4.30;61.03
10700;BME280;5401;41.986;21.452;2023-02-04T04:28:06;98305.88;;;4.31;60.09
10700;BME280;5401;41.986;21.452;2023-02-04T04:30:33;98314.00;;;4.30;60.87
10700;BME280;5401;41.986;21.452;2023-02-04T04:33:01;98339.56;;;4.23;61.13
10700;BME280;5401;41.986;21.452;2023-02-04T04:35:28;98344.84;;;4.23;61.15
10700;BME280;5401;41.986;21.452;2023-02-04T04:37:56;98345.81;;;4.30;60.31
10700;BME280;5401;41.986;21.452;2023-02-04T04:40:25;98368.13;;;4.35;60.86
10700;BME280;5401;41.986;21.452;2023-02-04T04:42:52;98372.09;;;4.39;60.39
10700;BME280;5401;41.986;21.452;2023-02-04T04:45:20;98359.91;;;4.30;60.63
10700;BME280;5401;41.986;21.452;2023-02-04T04:47:47;98363.31;;;4.39;60.82
10700;BME280;5401;41.986;21.452;2023-02-04T04:50:15;98358.19;;;4.37;61.07
10700;BME280;5401;41.986;21.452;2023-02-04T04:52:43;98358.03;;;4.39;61.08
10700;BME280;5401;41.986;21.452;2023-02-04T04:55:10;98348.06;;;4.41;60.65
10700;BME280;5401;41.986;21.452;2023-02-04T04:57:39;98349.06;;;4.40;60.12
10700;BME280;5401;41.986;21.452;2023-02-04T05:00:13;98349.78;;;4.26;60.73
10700;BME280;5401;41.986;21.452;2023-02-04T05:02:41;98359.56;;;4.25;60.34
10700;BME280;5401;41.986;21.452;2023-02-04T05:05:09;98345.84;;;4.22;61.05
10700;BME280;5401;41.986;21.452;2023-02-04T05:07:36;98352.31;;;4.20;60.93
10700;BME280;5401;41.986;21.452;2023-02-04T05:10:05;98359.47;;;4.11;61.13
10700;BME280;5401;41.986;21.452;2023-02-04T05:12:32;98370.06;;;4.11;60.68
10700;BME280;5401;41.986;21.452;2023-02-04T05:15:02;98371.78;;;4.04;60.89
10700;BME280;5401;41.986;21.452;2023-02-04T05:17:31;98388.31;;;4.06;60.86
10700;BME280;5401;41.986;21.452;2023-02-04T05:19:58;98388.31;;;4.06;61.17
10700;BME280;5401;41.986;21.452;2023-02-04T05:22:26;98381.72;;;4.02;61.14
10700;BME280;5401;41.986;21.452;2023-02-04T05:24:53;98379.06;;;4.02;61.23
10700;BME280;5401;41.986;21.452;2023-02-04T05:27:21;98387.16;;;4.01;61.59
10700;BME280;5401;41.986;21.452;2023-02-04T05:29:48;98362.69;;;3.99;60.96
10700;BME280;5401;41.986;21.452;2023-02-04T05:32:17;98374.31;;;3.90;61.74
10700;BME280;5401;41.986;21.452;2023-02-04T05:34:44;98338.75;;;3.85;61.61
10700;BME280;5401;41.986;21.452;2023-02-04T05:37:12;98361.25;;;3.81;62.03
10700;BME280;5401;41.986;21.452;2023-02-04T05:39:40;98339.94;;;3.74;62.04
10700;BME280;5401;41.986;21.452;2023-02-04T05:42:07;98362.78;;;3.67;61.70
10700;BME280;5401;41.986;21.452;2023-02-04T05:44:35;98380.31;;;3.68;62.17
10700;BME280;5401;41.986;21.452;2023-02-04T05:47:03;98360.78;;;3.69;62.64
10700;BME280;5401;41.986;21.452;2023-02-04T05:49:34;98347.75;;;3.68;62.75
10700;BME280;5401;41.986;21.452;2023-02-04T05:52:01;98350.56;;;3.66;62.29
10700;BME280;5401;41.986;21.452;2023-02-04T05:54:29;98352.53;;;3.64;62.98
10700;BME280;5401;41.986;21.452;2023-02-04T05:56:56;98361.31;;;3.65;62.37
10700;BME280;5401;41.986;21.452;2023-02-04T05:59:24;98351.88;;;3.70;62.99
10700;BME280;5401;41.986;21.452;2023-02-04T06:01:52;98343.25;;;3.76;63.11
10700;BME280;5401;41.986;21.452;2023-02-04T06:04:19;98356.91;;;3.88;63.52
10700;BME280;5401;41.986;21.452;2023-02-04T06:06:48;98343.31;;;3.98;62.82
10700;BME280;5401;41.986;21.452;2023-02-04T06:09:15;98339.31;;;4.10;62.79
10700;BME280;5401;41.986;21.452;2023-02-04T06:11:43;98343.56;;;4.19;62.63
10700;BME280;5401;41.986;21.452;2023-02-04T06:14:10;98348.81;;;4.27;63.52
10700;BME280;5401;41.986;21.452;2023-02-04T06:16:38;98314.66;;;4.32;63.58
10700;BME280;5401;41.986;21.452;2023-02-04T06:19:06;98291.41;;;4.42;62.93
10700;BME280;5401;41.986;21.452;2023-02-04T06:21:34;98332.63;;;4.44;63.56
10700;BME280;5401;41.986;21.452;2023-02-04T06:24:03;98335.94;;;4.46;62.96
10700;BME280;5401;41.986;21.452;2023-02-04T06:26:31;98339.22;;;4.48;62.70
10700;BME280;5401;41.986;21.452;2023-02-04T06:28:58;98340.56;;;4.44;63.72
10700;BME280;5401;41.986;21.452;2023-02-04T06:31:26;98325.59;;;4.59;63.46
10700;BME280;5401;41.986;21.452;2023-02-04T06:33:53;98349.47;;;4.81;62.71
10700;BME280;5401;41.986;21.452;2023-02-04T06:36:20;98329.09;;;5.32;62.85
10700;BME280;5401;41.986;21.452;2023-02-04T06:38:48;98337.66;;;6.28;62.25
10700;BME280;5401;41.986;21.452;2023-02-04T06:41:17;98322.63;;;7.45;61.34
10700;BME280;5401;41.986;21.452;2023-02-04T06:43:44;98318.50;;;8.37;58.87
10700;BME280;5401;41.986;21.452;2023-02-04T06:46:12;98330.19;;;9.21;58.50
10700;BME280;5401;41.986;21.452;2023-02-04T06:48:39;98316.31;;;10.13;56.33
10700;BME280;5401;41.986;21.452;2023-02-04T06:51:07;98313.28;;;10.53;55.77
10700;BME280;5401;41.986;21.452;2023-02-04T06:53:34;98299.44;;;11.00;54.80
10700;BME280;5401;41.986;21.452;2023-02-04T06:56:02;98305.69;;;11.18;54.11
10700;BME280;5401;41.986;21.452;2023-02-04T06:58:32;98303.38;;;10.97;54.14
10700;BME280;5401;41.986;21.452;2023-02-04T07:00:59;98297.03;;;10.55;54.61
10700;BME280;5401;41.986;21.452;2023-02-04T07:03:27;98304.13;;;10.36;54.48
10700;BME280;5401;41.986;21.452;2023-02-04T07:05:54;98288.59;;;10.01;54.68
10700;BME280;5401;41.986;21.452;2023-02-04T07:08:22;98313.69;;;9.81;54.90
10700;BME280;5401;41.986;21.452;2023-02-04T07:10:49;98293.13;;;9.88;56.09
10700;BME280;5401;41.986;21.452;2023-02-04T07:13:17;98297.66;;;10.00;55.54
10700;BME280;5401;41.986;21.452;2023-02-04T07:15:46;98309.41;;;9.80;55.85
10700;BME280;5401;41.986;21.452;2023-02-04T07:18:13;98289.84;;;9.73;55.51
10700;BME280;5401;41.986;21.452;2023-02-04T07:20:41;98302.41;;;9.86;55.59
10700;BME280;5401;41.986;21.452;2023-02-04T07:23:08;98313.28;;;10.03;56.21
10700;BME280;5401;41.986;21.452;2023-02-04T07:25:36;98294.53;;;10.03;56.19
10700;BME280;5401;41.986;21.452;2023-02-04T07:28:04;98292.66;;;10.17;56.21
10700;BME280;5401;41.986;21.452;2023-02-04T07:30:31;98272.00;;;10.36;55.44
10700;BME280;5401;41.986;21.452;2023-02-04T07:33:00;98299.06;;;10.59;55.80
10700;BME280;5401;41.986;21.452;2023-02-04T07:35:28;98276.91;;;10.39;56.00
10700;BME280;5401;41.986;21.452;2023-02-04T07:37:56;98266.38;;;10.51;55.67
10700;BME280;5401;41.986;21.452;2023-02-04T07:40:23;98261.06;;;10.44;56.22
10700;BME280;5401;41.986;21.452;2023-02-04T07:42:51;98246.81;;;10.50;55.95
10700;BME280;5401;41.986;21.452;2023-02-04T07:45:29;98245.47;;;10.66;56.48
10700;BME280;5401;41.986;21.452;2023-02-04T07:48:10;98243.50;;;10.55;56.44
10700;BME280;5401;41.986;21.452;2023-02-04T07:50:37;98245.13;;;10.56;56.37
10700;BME280;5401;41.986;21.452;2023-02-04T07:53:05;98262.75;;;10.69;56.86
10700;BME280;5401;41.986;21.452;2023-02-04T07:55:32;98225.75;;;10.91;56.40
10700;BME280;5401;41.986;21.452;2023-02-04T07:58:00;98225.09;;;11.19;55.87
10700;BME280;5401;41.986;21.452;2023-02-04T08:00:27;98243.63;;;11.21;56.03
10700;BME280;5401;41.986;21.452;2023-02-04T08:02:55;98236.88;;;11.36;55.65
10700;BME280;5401;41.986;21.452;2023-02-04T08:05:24;98229.16;;;11.70;55.43
10700;BME280;5401;41.986;21.452;2023-02-04T08:07:52;98229.91;;;11.95;55.49
10700;BME280;5401;41.986;21.452;2023-02-04T08:10:19;98211.25;;;12.00;55.41
10700;BME280;5401;41.986;21.452;2023-02-04T08:12:47;98219.25;;;11.88;55.27
10700;BME280;5401;41.986;21.452;2023-02-04T08:15:15;98237.81;;;11.90;55.59
10700;BME280;5401;41.986;21.452;2023-02-04T08:17:42;98224.66;;;12.17;55.58
10700;BME280;5401;41.986;21.452;2023-02-04T08:20:11;98219.69;;;12.21;55.36
10700;BME280;5401;41.986;21.452;2023-02-04T08:22:40;98197.75;;;12.24;54.50
10700;BME280;5401;41.986;21.452;2023-02-04T08:25:09;98217.28;;;12.31;54.87
10700;BME280;5401;41.986;21.452;2023-02-04T08:27:36;98228.41;;;11.99;54.70
10700;BME280;5401;41.986;21.452;2023-02-04T08:30:05;98230.56;;;11.73;54.88
10700;BME280;5401;41.986;21.452;2023-02-04T08:32:32;98213.13;;;11.22;55.10
10700;BME280;5401;41.986;21.452;2023-02-04T08:35:00;98220.78;;;10.64;55.17
10700;BME280;5401;41.986;21.452;2023-02-04T08:37:28;98226.59;;;10.17;55.78
10700;BME280;5401;41.986;21.452;2023-02-04T08:39:57;98231.31;;;10.22;56.14
10700;BME280;5401;41.986;21.452;2023-02-04T08:42:25;98237.66;;;10.27;55.48
10700;BME280;5401;41.986;21.452;2023-02-04T08:44:52;98233.47;;;10.00;55.91
10700;BME280;5401;41.986;21.452;2023-02-04T08:47:20;98219.09;;;9.95;56.64
10700;BME280;5401;41.986;21.452;2023-02-04T08:49:47;98235.81;;;9.65;56.02
10700;BME280;5401;41.986;21.452;2023-02-04T08:52:15;98240.22;;;9.21;56.77
10700;BME280;5401;41.986;21.452;2023-02-04T08:54:42;98228.28;;;8.98;56.95
10700;BME280;5401;41.986;21.452;2023-02-04T08:57:11;98237.28;;;8.52;57.89
10700;BME280;5401;41.986;21.452;2023-02-04T08:59:38;98250.94;;;8.17;58.03
10700;BME280;5401;41.986;21.452;2023-02-04T09:02:07;98244.44;;;7.86;58.51
10700;BME280;5401;41.986;21.452;2023-02-04T09:04:35;98259.22;;;7.61;58.45
10700;BME280;5401;41.986;21.452;2023-02-04T09:07:03;98252.63;;;7.51;59.01
10700;BME280;5401;41.986;21.452;2023-02-04T09:09:30;98270.72;;;7.62;59.17
10700;BME280;5401;41.986;21.452;2023-02-04T09:11:58;98251.22;;;7.55;58.96
10700;BME280;5401;41.986;21.452;2023-02-04T09:14:28;98268.31;;;7.73;59.80
10700;BME280;5401;41.986;21.452;2023-02-04T09:16:55;98260.00;;;7.89;59.08
10700;BME280;5401;41.986;21.452;2023-02-04T09:19:23;98254.34;;;8.05;58.98
10700;BME280;5401;41.986;21.452;2023-02-04T09:21:51;98235.72;;;8.11;59.85
10700;BME280;5401;41.986;21.452;2023-02-04T09:24:18;98230.22;;;8.19;59.78
10700;BME280;5401;41.986;21.452;2023-02-04T09:26:48;98244.19;;;8.27;58.94
10700;BME280;5401;41.986;21.452;2023-02-04T09:29:16;98226.31;;;8.21;59.01
10700;BME280;5401;41.986;21.452;2023-02-04T09:31:47;98237.38;;;8.12;58.60
10700;BME280;5401;41.986;21.452;2023-02-04T09:34:15;98237.00;;;8.21;59.49
10700;BME280;5401;41.986;21.452;2023-02-04T09:36:42;98233.50;;;8.15;58.94
10700;BME280;5401;41.986;21.452;2023-02-04T09:39:10;98240.53;;;7.88;58.78
10700;BME280;5401;41.986;21.452;2023-02-04T09:41:38;98237.75;;;7.69;58.83
10700;BME280;5401;41.986;21.452;2023-02-04T09:44:10;98223.13;;;7.52;59.98
10700;BME280;5401;41.986;21.452;2023-02-04T09:46:48;98244.69;;;7.57;59.12
10700;BME280;5401;41.986;21.452;2023-02-04T09:49:16;98219.41;;;7.47;59.76
10700;BME280;5401;41.986;21.452;2023-02-04T09:51:45;98219.38;;;7.41;59.97
10700;BME280;5401;41.986;21.452;2023-02-04T09:54:16;98225.47;;;7.35;59.89
10700;BME280;5401;41.986;21.452;2023-02-04T09:56:45;98246.38;;;7.31;59.36
10700;BME280;5401;41.986;21.452;2023-02-04T09:59:15;98209.28;;;7.30;59.38
10700;BME280;5401;41.986;21.452;2023-02-04T10:01:43;98210.88;;;7.24;60.39
10700;BME280;5401;41.986;21.452;2023-02-04T10:04:13;98207.84;;;7.27;60.26
10700;BME280;5401;41.986;21.452;2023-02-04T10:06:42;98202.38;;;7.42;59.68
10700;BME280;5401;41.986;21.452;2023-02-04T10:09:10;98204.34;;;7.67;60.47
10700;BME280;5401;41.986;21.452;2023-02-04T10:11:39;98189.44;;;7.72;59.46
10700;BME280;5401;41.986;21.452;2023-02-04T10:14:12;98207.88;;;7.74;60.48
10700;BME280;5401;41.986;21.452;2023-02-04T10:16:41;98208.44;;;7.63;60.46
10700;BME280;5401;41.986;21.452;2023-02-04T10:19:13;98196.75;;;7.57;59.96
10700;BME280;5401;41.986;21.452;2023-02-04T10:21:42;98214.16;;;7.60;59.82
10700;BME280;5401;41.986;21.452;2023-02-04T10:24:13;98208.84;;;7.60;60.46
10700;BME280;5401;41.986;21.452;2023-02-04T10:26:42;98192.72;;;7.74;60.61
10700;BME280;5401;41.986;21.452;2023-02-04T10:29:13;98203.06;;;7.56;60.85
10700;BME280;5401;41.986;21.452;2023-02-04T10:31:42;98174.28;;;7.39;60.69
10700;BME280;5401;41.986;21.452;2023-02-04T10:34:14;98203.56;;;7.39;60.62
10700;BME280;5401;41.986;21.452;2023-02-04T10:36:43;98186.00;;;7.45;60.86
10700;BME280;5401;41.986;21.452;2023-02-04T10:39:14;98184.63;;;7.61;60.62
10700;BME280;5401;41.986;21.452;2023-02-04T10:41:46;98173.66;;;7.77;60.92
10700;BME280;5401;41.986;21.452;2023-02-04T10:44:16;98179.25;;;7.88;60.71
10700;BME280;5401;41.986;21.452;2023-02-04T10:46:44;98175.97;;;7.93;60.73
10700;BME280;5401;41.986;21.452;2023-02-04T10:49:19;98174.97;;;8.00;61.01
10700;BME280;5401;41.986;21.452;2023-02-04T10:51:48;98176.41;;;8.03;60.40
10700;BME280;5401;41.986;21.452;2023-02-04T10:54:16;98157.78;;;8.09;60.51
10700;BME280;5401;41.986;21.452;2023-02-04T10:56:56;98157.59;;;8.17;60.74
10700;BME280;5401;41.986;21.452;2023-02-04T10:59:24;98155.97;;;8.16;60.54
10700;BME280;5401;41.986;21.452;2023-02-04T11:01:55;98155.38;;;8.14;60.90
10700;BME280;5401;41.986;21.452;2023-02-04T11:04:25;98152.41;;;8.03;60.58
10700;BME280;5401;41.986;21.452;2023-02-04T11:06:56;98152.78;;;7.87;60.74
10700;BME280;5401;41.986;21.452;2023-02-04T11:09:23;98142.53;;;7.78;60.55
10700;BME280;5401;41.986;21.452;2023-02-04T11:11:51;98110.28;;;7.60;61.17
10700;BME280;5401;41.986;21.452;2023-02-04T11:14:24;98133.66;;;7.71;60.97
10700;BME280;5401;41.986;21.452;2023-02-04T11:16:53;98118.72;;;7.70;61.19
10700;BME280;5401;41.986;21.452;2023-02-04T11:19:37;98126.31;;;7.79;60.89
10700;BME280;5401;41.986;21.452;2023-02-04T11:22:35;98123.28;;;7.95;60.78
10700;BME280;5401;41.986;21.452;2023-02-04T11:25:03;98118.63;;;8.10;61.11
10700;BME280;5401;41.986;21.452;2023-02-04T11:27:38;98105.72;;;8.26;60.92
10700;BME280;5401;41.986;21.452;2023-02-04T11:30:19;98093.22;;;8.39;60.27
10700;BME280;5401;41.986;21.452;2023-02-04T11:32:55;98102.66;;;8.48;60.58
10700;BME280;5401;41.986;21.452;2023-02-04T11:35:29;98098.75;;;8.44;60.59
10700;BME280;5401;41.986;21.452;2023-02-04T11:37:57;98086.47;;;8.30;60.26
10700;BME280;5401;41.986;21.452;2023-02-04T11:40:28;98088.72;;;8.20;60.83
10700;BME280;5401;41.986;21.452;2023-02-04T11:42:58;98088.28;;;8.17;61.64
10700;BME280;5401;41.986;21.452;2023-02-04T11:45:30;98081.94;;;8.18;61.44
10700;BME280;5401;41.986;21.452;2023-02-04T11:48:00;98099.78;;;8.30;61.12
10700;BME280;5401;41.986;21.452;2023-02-04T11:50:31;98089.94;;;8.37;60.70
10700;BME280;5401;41.986;21.452;2023-02-04T11:53:00;98088.94;;;8.38;61.35
10700;BME280;5401;41.986;21.452;2023-02-04T11:55:29;98070.44;;;8.18;61.06
10700;BME280;5401;41.986;21.452;2023-02-04T11:57:57;98080.72;;;8.20;61.24
10700;BME280;5401;41.986;21.452;2023-02-04T12:00:25;98092.81;;;8.49;61.54
10700;BME280;5401;41.986;21.452;2023-02-04T12:02:56;98098.31;;;8.66;61.49
10700;BME280;5401;41.986;21.452;2023-02-04T12:05:38;98103.25;;;8.76;60.86
10700;BME280;5401;41.986;21.452;2023-02-04T12:08:11;98089.09;;;8.75;60.93
10700;BME280;5401;41.986;21.452;2023-02-04T12:10:47;98055.44;;;8.61;61.22
10700;BME280;5401;41.986;21.452;2023-02-04T12:13:16;98063.03;;;8.71;60.67
10700;BME280;5401;41.986;21.452;2023-02-04T12:15:53;98081.25;;;8.87;61.77
10700;BME280;5401;41.986;21.452;2023-02-04T12:18:21;98098.31;;;8.92;61.08
10700;BME280;5401;41.986;21.452;2023-02-04T12:20:50;98097.44;;;9.04;61.00
10700;BME280;5401;41.986;21.452;2023-02-04T12:23:18;98092.72;;;9.06;60.62
10700;BME280;5401;41.986;21.452;2023-02-04T12:25:52;98079.97;;;9.08;60.49
10700;BME280;5401;41.986;21.452;2023-02-04T12:28:19;98085.53;;;9.07;60.23
10700;BME280;5401;41.986;21.452;2023-02-04T12:30:47;98032.59;;;8.85;60.99
10700;BME280;5401;41.986;21.452;2023-02-04T12:33:15;98064.97;;;9.14;61.22
10700;BME280;5401;41.986;21.452;2023-02-04T12:35:43;98058.97;;;9.24;60.50
10700;BME280;5401;41.986;21.452;2023-02-04T12:38:12;98069.56;;;9.50;60.20
10700;BME280;5401;41.986;21.452;2023-02-04T12:40:41;98047.88;;;9.71;60.09
10700;BME280;5401;41.986;21.452;2023-02-04T12:43:09;98069.13;;;9.97;59.80
10700;BME280;5401;41.986;21.452;2023-02-04T12:45:37;98063.22;;;10.19;59.65
10700;BME280;5401;41.986;21.452;2023-02-04T12:48:05;98067.13;;;10.47;59.41
10700;BME280;5401;41.986;21.452;2023-02-04T12:50:32;98073.00;;;10.79;59.23
10700;BME280;5401;41.986;21.452;2023-02-04T12:53:00;98060.81;;;11.19;59.07
10700;BME280;5401;41.986;21.452;2023-02-04T12:55:28;98068.34;;;11.28;58.83
10700;BME280;5401;41.986;21.452;2023-02-04T12:57:56;98065.66;;;11.28;58.61
10700;BME280;5401;41.986;21.452;2023-02-04T13:00:24;98064.09;;;11.21;58.06
10700;BME280;5401;41.986;21.452;2023-02-04T13:02:52;98063.50;;;11.19;58.59
10700;BME280;5401;41.986;21.452;2023-02-04T13:05:21;98065.00;;;11.15;58.59
10700;BME280;5401;41.986;21.452;2023-02-04T13:07:48;98078.84;;;11.12;58.57
10700;BME280;5401;41.986;21.452;2023-02-04T13:10:16;98086.72;;;11.07;58.60
10700;BME280;5401;41.986;21.452;2023-02-04T13:12:46;98079.94;;;11.04;58.57
10700;BME280;5401;41.986;21.452;2023-02-04T13:15:13;98075.03;;;11.02;58.55
10700;BME280;5401;41.986;21.452;2023-02-04T13:17:41;98077.53;;;10.97;58.43